KNZY/NZY METAR and TAF weather

Enter ICAO airport designator
Station Type Date Time Source
KNZY METAR 2021/07/28 19:52 UTC NOAA

KNZY 281952Z 32011KT 10SM FEW010 FEW060 SCT250 23/18 A3001 RMK AO2 SLP162 T02330178


Station Type Date Time Source
KNZY Decoded METAR 2021/07/28 19:52 UTC NOAA

NAS NORTH ISLAND, SAN DIEGO, CA, United States (KNZY) 32-42N 117-13W 14M
Jul 28, 2021 - 03:52 PM EDT / 2021.07.28 1952 UTC
Wind: from the NW (320 degrees) at 13 MPH (11 KT):0
Visibility: 10 mile(s):0
Sky conditions: partly cloudy
Temperature: 73.9 F (23.3 C)
Dew Point: 64.0 F (17.8 C)
Relative Humidity: 71%
Pressure (altimeter): 30.01 in. Hg (1016 hPa)
ob: KNZY 281952Z 32011KT 10SM FEW010 FEW060 SCT250 23/18 A3001 RMK AO2 SLP162 T02330178
cycle: 20

Station Type Date Time Source
KNZY TAF 2021/07/28 15:54 UTC NOAA

TAF KNZY 2815/2915 32009KT 9999 SCT012 BKN250 QNH2997INS
FM281700 31012KT 9999 FEW010 SCT250 QNH2992INS
BECMG 2906/2908 VRB06KT 9999 BKN010 QNH2990INS
TEMPO 2908/2913 8000 BR OVC008 T25/2821Z T20/2914Z FS30142

Example: see airport list